Time;durP1;ratioP1;P1;durP2;ratioP2;P2;SDS_P1;SDS_P2;PMS_P1;PMS_P2;Temp;Humidity;BMP_temperature;BMP_pressure;BME280_temperature;BME280_humidity;BME280_pressure;Samples;Min_cycle;Max_cycle;Signal;HPM_P1;HPM_P2
2022/06/28 00:00:11;;;;;;;1.13;0.60;;;24.90;63.70;;;;;;5044159;28;20247;-63
2022/06/28 00:02:37;;;;;;;0.50;0.40;;;25.00;63.80;;;;;;5051580;28;20195;-63
2022/06/28 00:05:03;;;;;;;0.60;0.50;;;24.90;63.80;;;;;;5051629;28;20429;-63
2022/06/28 00:07:29;;;;;;;0.50;0.50;;;25.00;63.70;;;;;;5051833;28;20263;-63
2022/06/28 00:09:54;;;;;;;0.50;0.40;;;24.80;63.60;;;;;;5050997;28;20514;-63
2022/06/28 00:12:20;;;;;;;0.90;0.60;;;25.00;63.70;;;;;;5051570;28;20715;-63
2022/06/28 00:17:30;;;;;;;0.50;0.40;;;25.00;63.60;;;;;;5031524;28;20275;-63
2022/06/28 00:19:56;;;;;;;0.50;0.40;;;25.00;63.70;;;;;;5032023;28;20911;-63
2022/06/28 00:22:21;;;;;;;0.50;0.40;;;24.90;63.60;;;;;;5031858;28;20197;-63
2022/06/28 00:24:47;;;;;;;0.50;0.40;;;25.00;63.70;;;;;;5049361;28;20189;-63
2022/06/28 00:27:12;;;;;;;0.50;0.40;;;25.00;63.60;;;;;;5065012;28;20176;-63
2022/06/28 00:29:38;;;;;;;0.70;0.70;;;25.00;63.60;;;;;;5071406;28;20203;-63
2022/06/28 00:32:05;;;;;;;0.50;0.50;;;25.00;63.60;;;;;;5070918;28;20215;-63
2022/06/28 00:34:30;;;;;;;0.57;0.57;;;25.00;63.50;;;;;;5055937;28;20492;-63
2022/06/28 00:36:56;;;;;;;0.50;0.50;;;25.00;63.60;;;;;;5051122;28;20406;-63
2022/06/28 00:39:22;;;;;;;0.50;0.40;;;24.90;63.50;;;;;;5049343;28;20266;-63
2022/06/28 00:41:47;;;;;;;0.67;0.67;;;24.70;80.70;;;;;;5050885;28;20269;-63
2022/06/28 00:44:13;;;;;;;0.50;0.50;;;24.90;63.40;;;;;;5038661;28;20203;-64
2022/06/28 00:46:39;;;;;;;0.63;0.60;;;24.90;63.40;;;;;;5030912;28;20203;-63
2022/06/28 00:49:06;;;;;;;0.50;0.50;;;25.00;63.40;;;;;;5031073;28;20427;-63
2022/06/28 00:51:32;;;;;;;0.50;0.47;;;24.30;63.00;;;;;;5031012;28;20656;-63
2022/06/28 00:53:59;;;;;;;0.50;0.47;;;25.00;63.40;;;;;;5040704;28;20464;-63
2022/06/28 00:56:25;;;;;;;0.57;0.57;;;25.00;63.40;;;;;;5050987;28;20484;-63
2022/06/28 00:58:52;;;;;;;1.17;0.40;;;24.90;63.30;;;;;;5050941;28;20935;-63
2022/06/28 01:01:20;;;;;;;0.60;0.50;;;25.00;63.40;;;;;;5050799;28;20268;-63
2022/06/28 01:03:45;;;;;;;0.50;0.40;;;25.00;63.30;;;;;;5050316;28;20454;-63
2022/06/28 01:06:11;;;;;;;0.60;0.60;;;25.00;63.30;;;;;;5051071;28;20476;-63
2022/06/28 01:08:37;;;;;;;0.50;0.47;;;25.00;63.30;;;;;;5036165;28;20600;-63
2022/06/28 01:11:18;;;;;;;0.67;0.67;;;25.00;63.20;;;;;;5031661;28;20245;-63
2022/06/28 01:13:52;;;;;;;0.60;0.60;;;25.00;63.20;;;;;;5044502;28;20442;-63
2022/06/28 01:16:18;;;;;;;0.50;0.50;;;25.00;63.20;;;;;;5030520;28;21021;-63
2022/06/28 01:18:44;;;;;;;0.50;0.50;;;25.00;63.10;;;;;;5030717;28;20411;-63
2022/06/28 01:21:14;;;;;;;0.50;0.40;;;25.00;63.20;;;;;;5030308;28;20856;-63
2022/06/28 01:23:44;;;;;;;0.70;0.53;;;25.00;63.10;;;;;;5032033;28;20197;-63
2022/06/28 01:26:15;;;;;;;0.77;0.60;;;25.00;63.00;;;;;;5055343;28;20459;-63
2022/06/28 01:28:41;;;;;;;0.60;0.50;;;25.00;63.10;;;;;;5070565;28;20414;-63
2022/06/28 01:31:07;;;;;;;0.50;0.40;;;25.10;63.20;;;;;;5069952;28;20481;-63
2022/06/28 01:33:36;;;;;;;0.57;0.57;;;25.00;63.00;;;;;;5068737;28;20434;-63
2022/06/28 01:36:04;;;;;;;0.50;0.50;;;25.00;63.00;;;;;;5050226;28;20215;-63
2022/06/28 01:38:30;;;;;;;0.50;0.50;;;25.00;62.90;;;;;;5050501;28;20787;-63
2022/06/28 01:40:56;;;;;;;0.70;0.70;;;25.00;62.90;;;;;;5041590;28;20889;-63
2022/06/28 01:43:22;;;;;;;0.60;0.60;;;25.00;62.90;;;;;;5030326;28;20521;-63
2022/06/28 01:45:50;;;;;;;0.60;0.60;;;25.00;62.90;;;;;;5049476;28;20795;-63
2022/06/28 01:48:18;;;;;;;0.70;0.70;;;24.90;62.80;;;;;;5050889;28;20515;-63
2022/06/28 01:50:44;;;;;;;1.00;1.00;;;24.90;62.80;;;;;;5049859;28;20910;-63
2022/06/28 01:53:10;;;;;;;0.93;0.50;;;25.00;62.80;;;;;;5049551;28;20532;-63
2022/06/28 01:55:35;;;;;;;0.60;0.40;;;24.90;62.70;;;;;;5032620;28;20487;-63
2022/06/28 01:58:02;;;;;;;0.53;0.50;;;25.00;62.80;;;;;;5029539;28;20180;-63
2022/06/28 02:00:29;;;;;;;0.60;0.43;;;24.90;62.60;;;;;;5034266;28;20188;-63
2022/06/28 02:02:55;;;;;;;0.50;0.50;;;25.00;62.70;;;;;;5049601;28;20431;-63
2022/06/28 02:05:20;;;;;;;0.70;0.70;;;25.10;62.60;;;;;;5049374;28;20426;-63
2022/06/28 02:07:48;;;;;;;0.90;0.40;;;25.00;62.50;;;;;;5049701;28;20965;-63
2022/06/28 02:10:13;;;;;;;1.30;0.60;;;24.90;62.50;;;;;;5030797;28;20197;-63
2022/06/28 02:12:39;;;;;;;0.80;0.80;;;25.00;62.50;;;;;;5029667;28;20443;-63
2022/06/28 02:15:05;;;;;;;0.80;0.70;;;25.00;62.50;;;;;;5042155;28;20208;-63
2022/06/28 02:17:30;;;;;;;0.50;0.50;;;25.00;62.40;;;;;;5049383;28;20169;-63
2022/06/28 02:19:56;;;;;;;0.70;0.50;;;25.00;62.40;;;;;;5049557;28;20411;-63
2022/06/28 02:22:21;;;;;;;0.53;0.53;;;25.00;62.30;;;;;;5049385;28;20188;-63
2022/06/28 02:24:48;;;;;;;0.53;0.53;;;25.00;62.30;;;;;;5040040;28;20222;-63
2022/06/28 02:27:14;;;;;;;0.70;0.50;;;24.90;62.20;;;;;;5057268;28;20184;-63
2022/06/28 02:29:40;;;;;;;0.70;0.70;;;25.00;62.10;;;;;;5069897;28;20480;-63
2022/06/28 02:32:06;;;;;;;1.57;0.50;;;25.00;62.20;;;;;;5069631;28;20203;-63
2022/06/28 02:42:44;;;;;;;0.50;0.50;;;24.90;61.90;;;;;;5049659;28;20468;-63
2022/06/28 02:45:09;;;;;;;0.83;0.50;;;24.90;61.90;;;;;;5037208;28;20420;-63
2022/06/28 02:47:35;;;;;;;0.87;0.60;;;24.90;61.80;;;;;;5029332;28;20197;-63
2022/06/28 02:50:00;;;;;;;0.53;0.53;;;24.90;61.80;;;;;;5029429;28;20704;-63
2022/06/28 02:52:26;;;;;;;0.60;0.40;;;24.90;62.40;;;;;;5028913;28;20679;-63
2022/06/28 02:54:51;;;;;;;0.60;0.60;;;24.90;61.70;;;;;;5038432;28;20200;-63
2022/06/28 02:57:17;;;;;;;0.50;0.40;;;25.20;61.80;;;;;;5049330;28;20168;-63
2022/06/28 02:59:43;;;;;;;0.60;0.50;;;24.90;61.70;;;;;;5049561;28;20229;-63
2022/06/28 03:02:08;;;;;;;2.50;2.30;;;24.70;61.50;;;;;;5046773;28;20227;-63
2022/06/28 03:04:34;;;;;;;0.50;0.40;;;24.90;61.50;;;;;;5035495;28;20251;-63
2022/06/28 03:06:59;;;;;;;0.70;0.63;;;24.80;61.30;;;;;;5049080;28;20176;-63
2022/06/28 03:09:25;;;;;;;0.97;0.40;;;24.90;61.40;;;;;;5051013;28;20180;-63
2022/06/28 03:11:50;;;;;;;2.30;0.53;;;24.80;78.20;;;;;;5052560;28;20590;-63
2022/06/28 03:14:16;;;;;;;1.80;0.63;;;24.90;61.40;;;;;;5048562;28;20238;-63
2022/06/28 03:16:41;;;;;;;0.50;0.40;;;24.90;61.30;;;;;;5048067;28;20264;-63
2022/06/28 03:19:07;;;;;;;1.27;0.60;;;24.90;61.20;;;;;;5047570;28;20266;-63
2022/06/28 03:21:32;;;;;;;0.60;0.60;;;24.90;61.20;;;;;;5048029;28;20173;-63
2022/06/28 03:23:58;;;;;;;0.50;0.50;;;24.90;61.10;;;;;;5052481;28;20192;-63
2022/06/28 03:26:24;;;;;;;0.50;0.50;;;24.80;61.00;;;;;;5052647;28;20215;-63
2022/06/28 03:28:49;;;;;;;0.60;0.50;;;24.90;61.00;;;;;;5052144;28;20180;-63
2022/06/28 03:31:15;;;;;;;0.50;0.40;;;24.90;60.90;;;;;;5039962;28;20542;-63
2022/06/28 03:33:40;;;;;;;0.60;0.50;;;24.60;60.70;;;;;;5042459;28;20683;-63
2022/06/28 03:36:06;;;;;;;1.00;0.53;;;24.90;60.90;;;;;;5052479;28;20211;-64
2022/06/28 03:38:31;;;;;;;4.93;0.60;;;24.90;60.90;;;;;;5052378;28;20180;-63
2022/06/28 03:40:57;;;;;;;0.70;0.70;;;24.90;60.80;;;;;;5052309;28;20199;-63
2022/06/28 03:43:23;;;;;;;0.60;0.50;;;24.90;60.70;;;;;;5045598;28;20284;-63
2022/06/28 03:45:48;;;;;;;1.43;0.57;;;24.80;60.60;;;;;;5032273;28;20176;-63
2022/06/28 03:48:14;;;;;;;0.97;0.50;;;24.80;60.50;;;;;;5032368;28;20176;-63
2022/06/28 03:50:39;;;;;;;0.50;0.50;;;24.90;60.60;;;;;;5032005;28;20184;-63
2022/06/28 03:53:05;;;;;;;0.60;0.50;;;24.90;60.60;;;;;;5035546;28;20302;-63
2022/06/28 03:55:30;;;;;;;1.03;0.50;;;24.90;60.60;;;;;;5051753;28;20200;-63
2022/06/28 03:57:56;;;;;;;0.53;0.53;;;24.90;60.50;;;;;;5049749;28;20247;-63
2022/06/28 04:00:22;;;;;;;0.50;0.40;;;24.80;60.50;;;;;;5035131;28;20168;-63
2022/06/28 04:02:47;;;;;;;2.50;0.60;;;24.90;60.50;;;;;;5049937;28;20235;-63
2022/06/28 04:05:13;;;;;;;0.83;0.50;;;24.90;60.40;;;;;;5033790;28;20272;-63
2022/06/28 04:07:38;;;;;;;0.50;0.50;;;24.90;60.40;;;;;;5031929;28;20217;-63
2022/06/28 04:10:04;;;;;;;0.63;0.63;;;24.90;60.30;;;;;;5031831;28;20263;-63
2022/06/28 04:12:30;;;;;;;0.60;0.57;;;24.90;60.30;;;;;;5031435;28;20197;-63
2022/06/28 04:14:55;;;;;;;0.50;0.50;;;24.90;60.30;;;;;;5043642;28;20935;-63
2022/06/28 04:17:21;;;;;;;0.80;0.57;;;24.90;60.30;;;;;;5051559;28;20173;-63
2022/06/28 04:19:46;;;;;;;0.50;0.43;;;24.90;60.30;;;;;;5051628;28;20320;-63
2022/06/28 04:22:12;;;;;;;0.70;0.60;;;24.90;60.40;;;;;;5050764;28;20189;-63
2022/06/28 04:24:37;;;;;;;0.60;0.50;;;24.90;60.30;;;;;;5047259;28;20187;-63
2022/06/28 04:27:03;;;;;;;1.90;0.43;;;24.90;60.30;;;;;;5056024;28;20660;-63
2022/06/28 04:29:29;;;;;;;1.53;0.40;;;24.90;60.30;;;;;;5071511;28;20671;-63
2022/06/28 04:31:54;;;;;;;0.70;0.60;;;25.00;77.60;;;;;;5039247;28;20189;-63
2022/06/28 04:34:20;;;;;;;0.60;0.60;;;24.80;60.20;;;;;;5051503;28;20183;-63
2022/06/28 04:36:45;;;;;;;2.60;0.63;;;24.90;60.20;;;;;;5051206;28;20203;-63
2022/06/28 04:39:11;;;;;;;0.60;0.60;;;24.90;60.30;;;;;;5051410;28;20696;-63
2022/06/28 04:41:36;;;;;;;0.70;0.60;;;24.90;60.90;;;;;;5048590;28;20657;-63
2022/06/28 04:44:02;;;;;;;0.50;0.50;;;25.60;60.70;;;;;;5031308;28;20516;-63
2022/06/28 04:46:28;;;;;;;0.50;0.50;;;24.90;60.20;;;;;;5031326;28;20515;-63
2022/06/28 04:48:54;;;;;;;0.53;0.53;;;24.80;60.10;;;;;;5048084;28;20528;-63
2022/06/28 04:51:20;;;;;;;1.47;0.60;;;24.80;60.10;;;;;;5051652;28;20486;-63
2022/06/28 04:53:47;;;;;;;6.43;0.53;;;24.90;60.20;;;;;;5038350;28;20212;-63
2022/06/28 04:56:13;;;;;;;0.50;0.50;;;24.90;60.10;;;;;;5031644;28;20196;-63
2022/06/28 04:58:39;;;;;;;0.50;0.50;;;24.90;60.10;;;;;;5044479;28;20834;-63
2022/06/28 05:01:05;;;;;;;0.60;0.60;;;24.90;60.20;;;;;;5050663;28;20250;-63
2022/06/28 05:03:31;;;;;;;4.63;1.53;;;24.80;60.10;;;;;;5047232;28;20205;-63
2022/06/28 05:05:57;;;;;;;0.67;0.67;;;24.90;60.10;;;;;;5034589;28;20617;-63
2022/06/28 05:08:23;;;;;;;0.60;0.60;;;24.90;60.10;;;;;;5050777;28;20415;-63
2022/06/28 05:10:48;;;;;;;0.50;0.50;;;24.90;60.10;;;;;;5046618;28;20954;-63
2022/06/28 05:13:14;;;;;;;0.50;0.50;;;24.90;60.10;;;;;;5050620;28;20687;-63
2022/06/28 05:15:39;;;;;;;1.17;0.67;;;23.10;59.20;;;;;;5037418;28;20295;-63
2022/06/28 05:18:05;;;;;;;0.50;0.50;;;24.90;60.10;;;;;;5030398;28;20176;-63
2022/06/28 05:20:30;;;;;;;2.40;1.77;;;24.80;60.10;;;;;;5047972;28;20176;-63
2022/06/28 05:22:56;;;;;;;2.40;0.57;;;;;;;;;;5046288;28;20204;-64
2022/06/28 05:25:22;;;;;;;1.13;0.70;;;26.00;60.40;;;;;;5045581;28;20184;-63
2022/06/28 05:27:47;;;;;;;0.57;0.50;;;24.90;60.30;;;;;;5050205;28;20465;-64
2022/06/28 05:30:13;;;;;;;0.60;0.60;;;24.70;60.20;;;;;;5043859;28;20239;-64
2022/06/28 05:32:39;;;;;;;0.60;0.60;;;24.80;60.40;;;;;;5048436;28;20665;-63
2022/06/28 05:35:06;;;;;;;0.57;0.57;;;24.90;60.50;;;;;;5035163;28;20204;-63
2022/06/28 05:37:32;;;;;;;0.50;0.50;;;24.80;60.30;;;;;;5046757;28;20530;-64
2022/06/28 05:39:57;;;;;;;3.07;0.53;;;24.60;60.30;;;;;;5050458;28;20415;-64
2022/06/28 05:42:23;;;;;;;0.80;0.80;;;24.90;60.60;;;;;;5040597;28;20444;-64
2022/06/28 05:44:49;;;;;;;0.53;0.53;;;24.90;60.60;;;;;;5045255;28;20211;-63
2022/06/28 05:47:15;;;;;;;0.67;0.67;;;24.90;60.50;;;;;;5041770;28;20427;-63
2022/06/28 05:49:40;;;;;;;0.50;0.50;;;24.90;60.70;;;;;;5047382;28;20188;-64
2022/06/28 05:52:07;;;;;;;0.80;0.80;;;25.00;60.80;;;;;;5048638;28;20525;-64
2022/06/28 05:54:33;;;;;;;1.77;0.40;;;24.90;60.80;;;;;;5044461;28;20197;-64
2022/06/28 05:56:59;;;;;;;0.60;0.60;;;24.90;60.90;;;;;;5040237;28;20675;-64
2022/06/28 05:59:25;;;;;;;0.50;0.50;;;25.00;60.90;;;;;;5045385;28;20634;-64
2022/06/28 06:01:50;;;;;;;0.97;0.97;;;24.90;77.40;;;;;;5042551;28;20192;-63
2022/06/28 06:04:16;;;;;;;0.80;0.70;;;25.00;61.00;;;;;;5048632;28;20423;-64
2022/06/28 06:06:42;;;;;;;0.60;0.47;;;25.00;61.00;;;;;;5041337;28;20337;-63
2022/06/28 06:09:07;;;;;;;0.60;0.60;;;24.80;60.90;;;;;;5031163;28;20244;-63
2022/06/28 06:11:33;;;;;;;0.70;0.67;;;25.00;61.00;;;;;;5040018;28;20204;-63
2022/06/28 06:13:59;;;;;;;0.50;0.50;;;25.10;61.20;;;;;;5040083;28;20573;-64
2022/06/28 06:16:24;;;;;;;0.90;0.63;;;25.10;61.10;;;;;;5042386;28;20212;-64
2022/06/28 06:18:50;;;;;;;0.57;0.57;;;25.10;61.30;;;;;;5045626;28;20176;-63
2022/06/28 06:21:15;;;;;;;0.60;0.50;;;25.10;61.40;;;;;;5044408;28;20543;-63
2022/06/28 06:23:41;;;;;;;3.47;0.80;;;25.10;61.50;;;;;;5049250;28;20196;-64
2022/06/28 06:26:07;;;;;;;0.50;0.50;;;25.20;61.60;;;;;;5048658;28;20632;-63
2022/06/28 06:28:34;;;;;;;0.60;0.50;;;25.10;61.60;;;;;;5069332;28;20194;-63
2022/06/28 06:31:00;;;;;;;0.80;0.80;;;25.20;62.40;;;;;;5039566;28;20331;-62
2022/06/28 06:33:26;;;;;;;2.63;0.50;;;26.10;62.30;;;;;;5049438;28;20505;-63
2022/06/28 06:35:51;;;;;;;1.23;0.60;;;25.20;62.40;;;;;;5049387;28;20211;-62
2022/06/28 06:38:17;;;;;;;1.43;0.67;;;25.20;61.90;;;;;;5048075;28;20187;-66
2022/06/28 06:40:42;;;;;;;0.73;0.70;;;25.20;61.90;;;;;;5042692;28;20290;-62
2022/06/28 06:43:08;;;;;;;0.80;0.77;;;25.20;61.90;;;;;;5037597;28;20204;-63
2022/06/28 06:45:34;;;;;;;0.63;0.50;;;25.30;62.00;;;;;;5039808;28;20711;-63
2022/06/28 06:48:00;;;;;;;0.70;0.70;;;25.30;61.90;;;;;;5052790;28;20437;-64
2022/06/28 06:50:25;;;;;;;1.37;0.80;;;25.30;62.00;;;;;;5045424;28;20204;-63
2022/06/28 06:52:51;;;;;;;0.80;0.80;;;25.30;61.90;;;;;;5041811;28;20217;-63
2022/06/28 06:55:16;;;;;;;1.90;0.70;;;25.30;61.80;;;;;;5043403;28;20541;-64
2022/06/28 06:57:42;;;;;;;0.50;0.50;;;25.30;61.80;;;;;;5045195;28;20219;-64
2022/06/28 07:00:09;;;;;;;0.50;0.50;;;25.30;61.80;;;;;;5043324;28;20577;-62
2022/06/28 07:02:41;;;;;;;0.70;0.70;;;25.30;61.70;;;;;;5045087;28;20450;-63
2022/06/28 07:05:08;;;;;;;1.17;0.60;;;25.30;62.30;;;;;;5047519;28;20450;-64
2022/06/28 07:07:34;;;;;;;1.40;0.60;;;25.30;61.50;;;;;;5046245;28;20501;-63
2022/06/28 07:10:02;;;;;;;0.93;0.63;;;25.30;61.40;;;;;;5040975;28;20591;-62
2022/06/28 07:12:28;;;;;;;0.53;0.50;;;25.30;61.20;;;;;;5042023;28;20196;-64
2022/06/28 07:14:53;;;;;;;0.73;0.73;;;25.30;61.10;;;;;;5039463;28;20504;-62
2022/06/28 07:17:19;;;;;;;0.70;0.60;;;25.30;60.70;;;;;;5043403;28;20255;-63
2022/06/28 07:19:44;;;;;;;0.77;0.77;;;25.30;60.60;;;;;;5042470;28;20173;-63
2022/06/28 07:22:10;;;;;;;9.20;0.77;;;25.30;60.50;;;;;;5042154;28;20188;-63
2022/06/28 07:24:36;;;;;;;0.60;0.60;;;25.30;60.50;;;;;;5039247;28;20213;-63
2022/06/28 07:27:01;;;;;;;0.70;0.70;;;25.20;60.30;;;;;;5043723;28;20232;-63
2022/06/28 07:29:27;;;;;;;2.20;0.60;;;25.30;60.30;;;;;;5042939;28;20192;-64
2022/06/28 07:31:52;;;;;;;3.13;0.87;;;25.30;77.30;;;;;;5051361;28;20180;-63
2022/06/28 07:34:18;;;;;;;0.60;0.60;;;25.20;60.20;;;;;;5047935;28;20267;-64
2022/06/28 07:36:45;;;;;;;0.70;0.60;;;25.20;60.00;;;;;;5056717;28;20235;-64
2022/06/28 07:39:10;;;;;;;0.60;0.57;;;25.20;59.90;;;;;;5050130;28;20655;-63
2022/06/28 07:41:36;;;;;;;0.73;0.70;;;25.20;59.70;;;;;;5049257;28;20537;-63
2022/06/28 07:44:02;;;;;;;0.50;0.50;;;25.20;59.70;;;;;;5050584;28;20201;-63
2022/06/28 07:46:27;;;;;;;1.80;1.03;;;25.20;59.60;;;;;;5049760;28;20229;-63
2022/06/28 07:48:53;;;;;;;1.07;0.50;;;25.20;60.20;;;;;;5033068;28;20590;-65
2022/06/28 07:54:04;;;;;;;2.03;0.87;;;25.20;59.40;;;;;;5037949;28;20243;-64
2022/06/28 07:56:30;;;;;;;0.50;0.40;;;25.30;59.40;;;;;;5034155;28;20483;-64
2022/06/28 07:58:56;;;;;;;1.10;0.60;;;25.30;59.40;;;;;;5047373;28;20563;-65
2022/06/28 08:01:22;;;;;;;0.73;0.70;;;25.50;59.50;;;;;;5044475;28;20173;-63
2022/06/28 08:03:47;;;;;;;1.97;1.33;;;25.40;59.50;;;;;;5047472;28;20193;-63
2022/06/28 08:06:13;;;;;;;1.80;0.77;;;25.30;59.50;;;;;;5049797;28;20426;-63
2022/06/28 08:08:39;;;;;;;0.60;0.60;;;25.30;59.60;;;;;;5032295;28;20181;-63
2022/06/28 08:11:05;;;;;;;1.80;1.20;;;25.30;59.60;;;;;;5032972;28;20423;-63
2022/06/28 08:13:31;;;;;;;0.80;0.80;;;25.30;59.70;;;;;;5034898;28;20283;-62
2022/06/28 08:15:58;;;;;;;0.50;0.50;;;25.40;59.90;;;;;;5043979;28;20215;-63
2022/06/28 08:18:23;;;;;;;1.00;0.50;;;25.40;59.90;;;;;;5051446;28;20182;-64
2022/06/28 08:20:49;;;;;;;0.50;0.50;;;25.40;60.00;;;;;;5051560;28;20398;-62
2022/06/28 08:23:15;;;;;;;0.70;0.70;;;25.40;60.00;;;;;;5048183;28;20758;-63
2022/06/28 08:25:44;;;;;;;0.50;0.40;;;25.40;60.00;;;;;;5050880;28;20197;-64
2022/06/28 08:28:11;;;;;;;0.50;0.50;;;25.40;60.10;;;;;;5041194;28;20176;-63
2022/06/28 08:30:37;;;;;;;0.80;0.80;;;25.40;60.20;;;;;;5050807;28;20423;-64
2022/06/28 08:33:02;;;;;;;0.93;0.47;;;25.40;60.20;;;;;;5051232;28;20443;-64
2022/06/28 08:35:28;;;;;;;1.20;0.60;;;25.40;60.10;;;;;;5071332;28;20507;-63
2022/06/28 08:37:54;;;;;;;0.60;0.60;;;25.40;60.80;;;;;;5061503;28;20184;-63
2022/06/28 08:40:22;;;;;;;0.50;0.50;;;25.40;60.20;;;;;;5060089;28;20179;-63
2022/06/28 08:42:51;;;;;;;0.63;0.40;;;25.40;60.20;;;;;;5053315;28;20265;-63
2022/06/28 08:45:17;;;;;;;0.80;0.60;;;25.50;60.90;;;;;;5056639;28;20435;-62
2022/06/28 08:47:46;;;;;;;0.50;0.50;;;25.40;60.20;;;;;;5033866;28;20424;-62
2022/06/28 08:50:19;;;;;;;0.90;0.60;;;25.40;60.20;;;;;;5064379;28;20187;-63
2022/06/28 08:52:46;;;;;;;0.70;0.70;;;25.40;60.20;;;;;;5051219;28;20447;-63
2022/06/28 08:55:13;;;;;;;1.70;0.60;;;25.40;60.90;;;;;;5051667;28;20450;-65
2022/06/28 08:57:41;;;;;;;0.67;0.67;;;25.50;60.30;;;;;;5051184;28;20776;-65
2022/06/28 09:00:09;;;;;;;0.50;0.50;;;25.50;60.50;;;;;;5049699;28;20450;-63
2022/06/28 09:02:35;;;;;;;0.60;0.60;;;25.50;60.20;;;;;;5048969;28;20508;-64
2022/06/28 09:05:02;;;;;;;0.60;0.60;;;25.50;60.30;;;;;;5043996;28;20923;-64
2022/06/28 09:07:28;;;;;;;0.70;0.70;;;25.50;60.20;;;;;;5050433;28;20574;-64
2022/06/28 09:09:54;;;;;;;0.50;0.50;;;25.50;60.20;;;;;;5044891;28;20950;-64
2022/06/28 09:12:20;;;;;;;0.70;0.50;;;25.50;60.10;;;;;;5046289;28;20454;-65
2022/06/28 09:14:47;;;;;;;0.57;0.50;;;25.50;60.20;;;;;;5045257;28;20267;-64
2022/06/28 09:17:27;;;;;;;0.50;0.50;;;25.40;60.00;;;;;;5050197;28;20196;-63
2022/06/28 09:19:58;;;;;;;0.53;0.53;;;25.50;60.00;;;;;;5050665;28;20542;-62
2022/06/28 09:22:29;;;;;;;0.50;0.40;;;25.50;60.00;;;;;;5048944;28;20566;-65
2022/06/28 09:24:55;;;;;;;0.50;0.50;;;25.50;60.10;;;;;;5037432;28;20419;-65
2022/06/28 09:27:29;;;;;;;2.30;0.50;;;26.20;60.60;;;;;;5052020;28;20850;-64
2022/06/28 09:29:54;;;;;;;0.90;0.70;;;25.40;60.10;;;;;;5041369;28;20200;-63
2022/06/28 09:32:34;;;;;;;0.60;0.50;;;25.40;60.10;;;;;;5039783;28;20447;-64
2022/06/28 09:35:05;;;;;;;1.47;0.80;;;25.50;60.20;;;;;;5039936;28;20175;-64
2022/06/28 09:37:41;;;;;;;0.90;0.90;;;25.50;60.10;;;;;;5036375;28;20415;-63
2022/06/28 09:40:18;;;;;;;0.50;0.40;;;25.50;60.20;;;;;;5046156;28;20510;-65
2022/06/28 09:42:46;;;;;;;1.33;0.50;;;25.50;60.20;;;;;;5042848;28;21038;-64
2022/06/28 09:45:15;;;;;;;0.50;0.50;;;25.50;60.20;;;;;;5032471;28;20427;-63
2022/06/28 09:47:46;;;;;;;2.03;1.20;;;25.50;60.20;;;;;;5045788;28;20428;-63
2022/06/28 09:50:17;;;;;;;0.50;0.40;;;25.50;60.80;;;;;;5037689;28;20795;-63
2022/06/28 09:52:45;;;;;;;0.50;0.40;;;25.50;60.20;;;;;;5047360;28;20455;-64
2022/06/28 09:55:14;;;;;;;0.90;0.53;;;25.50;60.10;;;;;;5050347;28;20950;-63
2022/06/28 09:57:43;;;;;;;0.70;0.50;;;25.50;60.10;;;;;;5032144;28;20807;-63
2022/06/28 10:00:09;;;;;;;0.97;0.67;;;25.50;60.10;;;;;;5030186;28;20935;-64
2022/06/28 10:02:35;;;;;;;0.50;0.50;;;25.50;60.00;;;;;;5029845;28;20435;-63
2022/06/28 10:05:01;;;;;;;0.60;0.60;;;25.50;60.10;;;;;;5029629;28;20431;-63
2022/06/28 10:07:34;;;;;;;0.50;0.40;;;25.50;60.70;;;;;;5030099;28;20420;-63
2022/06/28 10:10:01;;;;;;;0.60;0.60;;;25.50;60.00;;;;;;5029768;28;20200;-63
2022/06/28 10:15:21;;;;;;;0.50;0.47;;;25.40;59.90;;;;;;5031486;28;20532;-63
2022/06/28 10:18:00;;;;;;;0.50;0.40;;;25.40;59.90;;;;;;5032874;28;20436;-62
2022/06/28 10:20:31;;;;;;;0.90;0.50;;;25.50;60.00;;;;;;5033300;28;20424;-63
2022/06/28 10:23:26;;;;;;;0.50;0.50;;;25.50;59.90;;;;;;5031170;28;20504;-63
2022/06/28 10:26:02;;;;;;;0.50;0.40;;;25.50;59.90;;;;;;5050095;28;20423;-62
2022/06/28 10:28:33;;;;;;;0.80;0.60;;;25.50;59.90;;;;;;5033498;28;20923;-63
2022/06/28 10:31:20;;;;;;;0.60;0.53;;;25.40;59.80;;;;;;5038136;28;20455;-62
2022/06/28 10:33:47;;;;;;;1.57;0.57;;;25.50;59.80;;;;;;5045309;28;20974;-63
2022/06/28 10:36:15;;;;;;;0.50;0.40;;;25.40;59.70;;;;;;5047128;28;20454;-62
2022/06/28 10:39:01;;;;;;;0.50;0.50;;;25.50;59.80;;;;;;5041883;28;20610;-63
2022/06/28 10:41:43;;;;;;;1.37;0.40;;;25.40;59.60;;;;;;5034608;28;20423;-63
2022/06/28 10:44:11;;;;;;;0.50;0.40;;;25.50;59.60;;;;;;5041203;28;20426;-63
2022/06/28 10:46:37;;;;;;;0.50;0.40;;;25.40;59.50;;;;;;5049248;28;20421;-64
2022/06/28 10:49:09;;;;;;;0.90;0.40;;;25.50;59.50;;;;;;5040268;28;20534;-62
2022/06/28 10:51:37;;;;;;;0.50;0.40;;;25.50;59.50;;;;;;5035747;28;20522;-63
2022/06/28 10:54:06;;;;;;;0.60;0.50;;;25.50;59.50;;;;;;5049302;28;20468;-63
2022/06/28 10:56:47;;;;;;;0.50;0.50;;;25.50;59.40;;;;;;5048877;28;20876;-62
2022/06/28 10:59:17;;;;;;;0.50;0.40;;;25.40;60.00;;;;;;5029352;28;20510;-63
2022/06/28 11:01:46;;;;;;;0.40;0.37;;;25.10;75.90;;;;;;5031250;28;20524;-62
2022/06/28 11:04:19;;;;;;;0.50;0.43;;;25.50;59.40;;;;;;5037114;28;20414;-62
2022/06/28 11:06:47;;;;;;;0.50;0.50;;;25.50;59.30;;;;;;5049576;28;20894;-63
2022/06/28 11:09:25;;;;;;;0.70;0.50;;;25.50;59.40;;;;;;5029812;28;20493;-62
2022/06/28 11:12:13;;;;;;;0.70;0.50;;;25.60;76.40;;;;;;5033932;28;20455;-63
2022/06/28 11:15:00;;;;;;;0.50;0.50;;;25.50;59.80;;;;;;5040891;28;20939;-63
2022/06/28 11:17:32;;;;;;;0.70;0.50;;;25.50;59.30;;;;;;5038762;28;20446;-63
2022/06/28 11:20:24;;;;;;;0.50;0.50;;;25.50;59.30;;;;;;5048609;28;20422;-65
2022/06/28 11:22:51;;;;;;;0.63;0.50;;;25.50;59.20;;;;;;5031032;28;20451;-64
2022/06/28 11:25:21;;;;;;;1.57;0.70;;;25.50;59.30;;;;;;5027560;28;20408;-64
2022/06/28 11:27:58;;;;;;;0.50;0.50;;;25.50;59.40;;;;;;5032802;28;20576;-64
2022/06/28 11:30:29;;;;;;;0.93;0.60;;;25.60;59.50;;;;;;5040696;28;20424;-65
2022/06/28 11:32:56;;;;;;;0.50;0.40;;;25.50;59.50;;;;;;5045524;28;20954;-64
2022/06/28 11:35:28;;;;;;;0.60;0.50;;;25.50;59.40;;;;;;5049594;28;20486;-65
2022/06/28 11:38:05;;;;;;;0.60;0.50;;;25.60;59.60;;;;;;5039407;28;20427;-64
2022/06/28 11:40:49;;;;;;;0.60;0.60;;;25.60;59.60;;;;;;5031563;28;20427;-65
2022/06/28 11:43:18;;;;;;;0.90;0.63;;;25.60;59.70;;;;;;5037573;28;20455;-65
2022/06/28 11:45:50;;;;;;;0.60;0.60;;;25.60;59.70;;;;;;5038523;28;20921;-64
2022/06/28 11:48:21;;;;;;;0.60;0.60;;;26.10;60.10;;;;;;5039518;28;20424;-64
2022/06/28 11:50:50;;;;;;;0.70;0.70;;;25.60;59.70;;;;;;5035611;28;20471;-65
2022/06/28 11:53:17;;;;;;;0.50;0.50;;;25.60;59.70;;;;;;5031456;28;20458;-64
2022/06/28 11:55:51;;;;;;;0.60;0.60;;;25.70;59.70;;;;;;5031900;28;20455;-65
2022/06/28 11:58:28;;;;;;;0.50;0.47;;;25.80;59.70;;;;;;5034105;28;20571;-65
2022/06/28 12:01:05;;;;;;;0.50;0.40;;;25.70;59.60;;;;;;5038926;28;20509;-64
2022/06/28 12:03:33;;;;;;;0.60;0.60;;;25.70;59.60;;;;;;5031893;28;20861;-65
2022/06/28 12:06:01;;;;;;;0.60;0.50;;;25.60;59.50;;;;;;5032068;28;20454;-65
2022/06/28 12:09:05;;;;;;;1.17;0.67;;;25.60;60.10;;;;;;5032485;28;20865;-65
2022/06/28 12:11:56;;;;;;;0.60;0.43;;;25.60;59.50;;;;;;5031529;28;20416;-66
2022/06/28 12:14:29;;;;;;;0.50;0.50;;;25.60;59.50;;;;;;5048153;28;20429;-66
2022/06/28 12:16:54;;;;;;;0.50;0.40;;;26.40;60.00;;;;;;5040846;28;20486;-64
2022/06/28 12:19:26;;;;;;;0.50;0.50;;;25.70;58.90;;;;;;5043243;28;20911;-64
2022/06/28 12:22:11;;;;;;;1.23;0.67;;;25.50;76.30;;;;;;5037627;28;20599;-63
2022/06/28 12:24:40;;;;;;;0.80;0.57;;;25.70;61.40;;;;;;5031692;28;20446;-64
2022/06/28 12:27:06;;;;;;;0.50;0.50;;;25.70;76.40;;;;;;5039999;28;20418;-65
2022/06/28 12:29:32;;;;;;;0.50;0.50;;;;;;;;;;5043870;28;20428;-66
2022/06/28 12:31:59;;;;;;;2.20;0.50;;;;;;;;;;5041788;28;20420;-66
2022/06/28 12:34:25;;;;;;;0.50;0.40;;;25.80;80.30;;;;;;5037684;28;20461;-65
2022/06/28 12:36:51;;;;;;;1.17;0.80;;;;;;;;;;5034445;28;20455;-65
2022/06/28 12:39:16;;;;;;;0.50;0.40;;;25.70;77.60;;;;;;5036595;28;20411;-65
2022/06/28 12:41:43;;;;;;;0.60;0.53;;;;;;;;;;5036209;28;20794;-66
2022/06/28 12:44:09;;;;;;;0.50;0.40;;;;;;;;;;5039689;28;20199;-66
2022/06/28 12:46:34;;;;;;;0.70;0.50;;;25.60;76.60;;;;;;5042071;28;20924;-65
2022/06/28 12:49:00;;;;;;;0.50;0.40;;;25.70;58.40;;;;;;5044486;28;20494;-66
2022/06/28 12:51:26;;;;;;;0.50;0.50;;;25.80;79.90;;;;;;5044915;28;20188;-65
2022/06/28 12:53:52;;;;;;;0.50;0.50;;;25.60;74.30;;;;;;5038236;28;20747;-66
2022/06/28 12:56:18;;;;;;;0.60;0.60;;;25.60;74.30;;;;;;5037306;28;20467;-65
2022/06/28 12:58:45;;;;;;;0.50;0.50;;;25.80;66.10;;;;;;5044212;28;20237;-66
2022/06/28 13:01:11;;;;;;;0.70;0.70;;;25.50;79.40;;;;;;5040856;28;20211;-66
2022/06/28 13:03:37;;;;;;;0.50;0.50;;;25.60;76.30;;;;;;5033373;28;20435;-65
2022/06/28 13:06:03;;;;;;;0.50;0.50;;;25.80;74.10;;;;;;5034380;28;20431;-66